sensor_id;sensor_type;location;lat;lon;timestamp;P1;durP1;ratioP1;P2;durP2;ratioP2
69081;SDS011;56184;51.986;5.760;2022-09-24T00:06:24;31.92;;;19.48;;
69081;SDS011;56184;51.986;5.760;2022-09-24T00:08:52;28.23;;;18.08;;
69081;SDS011;56184;51.986;5.760;2022-09-24T00:11:20;23.25;;;17.33;;
69081;SDS011;56184;51.986;5.760;2022-09-24T00:13:48;27.10;;;19.73;;
69081;SDS011;56184;51.986;5.760;2022-09-24T00:16:17;28.77;;;20.05;;
69081;SDS011;56184;51.986;5.760;2022-09-24T00:18:45;25.15;;;19.23;;
69081;SDS011;56184;51.986;5.760;2022-09-24T00:21:15;26.50;;;18.95;;
69081;SDS011;56184;51.986;5.760;2022-09-24T00:23:50;24.88;;;18.42;;
69081;SDS011;56184;51.986;5.760;2022-09-24T00:26:17;26.63;;;18.67;;
69081;SDS011;56184;51.986;5.760;2022-09-24T00:29:06;24.45;;;18.58;;
69081;SDS011;56184;51.986;5.760;2022-09-24T00:31:32;25.38;;;17.67;;
69081;SDS011;56184;51.986;5.760;2022-09-24T00:33:58;22.63;;;17.23;;
69081;SDS011;56184;51.986;5.760;2022-09-24T00:36:25;26.27;;;19.55;;
69081;SDS011;56184;51.986;5.760;2022-09-24T00:38:52;23.25;;;15.40;;
69081;SDS011;56184;51.986;5.760;2022-09-24T00:41:20;22.45;;;16.92;;
69081;SDS011;56184;51.986;5.760;2022-09-24T00:43:48;25.05;;;18.45;;
69081;SDS011;56184;51.986;5.760;2022-09-24T00:48:50;22.65;;;17.67;;
69081;SDS011;56184;51.986;5.760;2022-09-24T00:51:29;30.40;;;20.77;;
69081;SDS011;56184;51.986;5.760;2022-09-24T00:54:00;27.73;;;19.13;;
69081;SDS011;56184;51.986;5.760;2022-09-24T00:56:30;27.65;;;19.40;;
69081;SDS011;56184;51.986;5.760;2022-09-24T00:58:59;26.85;;;19.55;;
69081;SDS011;56184;51.986;5.760;2022-09-24T01:01:28;25.98;;;18.05;;
69081;SDS011;56184;51.986;5.760;2022-09-24T01:03:55;29.48;;;18.25;;
69081;SDS011;56184;51.986;5.760;2022-09-24T01:06:22;23.65;;;16.30;;
69081;SDS011;56184;51.986;5.760;2022-09-24T01:08:49;24.05;;;17.00;;
69081;SDS011;56184;51.986;5.760;2022-09-24T01:11:18;21.58;;;16.48;;
69081;SDS011;56184;51.986;5.760;2022-09-24T01:25:16;27.02;;;18.98;;
69081;SDS011;56184;51.986;5.760;2022-09-24T01:30:53;30.52;;;19.77;;
69081;SDS011;56184;51.986;5.760;2022-09-24T01:33:24;29.55;;;19.92;;
69081;SDS011;56184;51.986;5.760;2022-09-24T01:35:55;21.90;;;15.55;;
69081;SDS011;56184;51.986;5.760;2022-09-24T01:38:29;30.35;;;20.23;;
69081;SDS011;56184;51.986;5.760;2022-09-24T01:40:59;29.05;;;19.90;;
69081;SDS011;56184;51.986;5.760;2022-09-24T01:43:27;28.48;;;20.45;;
69081;SDS011;56184;51.986;5.760;2022-09-24T01:45:54;25.88;;;19.05;;
69081;SDS011;56184;51.986;5.760;2022-09-24T01:48:29;30.60;;;19.73;;
69081;SDS011;56184;51.986;5.760;2022-09-24T01:50:57;23.58;;;16.75;;
69081;SDS011;56184;51.986;5.760;2022-09-24T01:53:41;25.50;;;18.75;;
69081;SDS011;56184;51.986;5.760;2022-09-24T01:56:21;30.08;;;19.27;;
69081;SDS011;56184;51.986;5.760;2022-09-24T01:58:52;32.17;;;21.25;;
69081;SDS011;56184;51.986;5.760;2022-09-24T02:01:28;31.25;;;19.98;;
69081;SDS011;56184;51.986;5.760;2022-09-24T02:03:58;30.63;;;20.52;;
69081;SDS011;56184;51.986;5.760;2022-09-24T02:06:31;30.42;;;21.55;;
69081;SDS011;56184;51.986;5.760;2022-09-24T02:09:00;26.52;;;19.23;;
69081;SDS011;56184;51.986;5.760;2022-09-24T02:11:26;26.45;;;19.58;;
69081;SDS011;56184;51.986;5.760;2022-09-24T02:14:05;34.28;;;20.98;;
69081;SDS011;56184;51.986;5.760;2022-09-24T02:16:35;33.33;;;20.40;;
69081;SDS011;56184;51.986;5.760;2022-09-24T02:19:07;25.05;;;19.95;;
69081;SDS011;56184;51.986;5.760;2022-09-24T02:21:35;23.70;;;17.13;;
69081;SDS011;56184;51.986;5.760;2022-09-24T02:24:06;28.55;;;19.95;;
69081;SDS011;56184;51.986;5.760;2022-09-24T02:26:46;25.02;;;18.02;;
69081;SDS011;56184;51.986;5.760;2022-09-24T02:29:12;26.63;;;19.15;;
69081;SDS011;56184;51.986;5.760;2022-09-24T02:31:42;29.20;;;19.17;;
69081;SDS011;56184;51.986;5.760;2022-09-24T02:34:13;25.60;;;17.23;;
69081;SDS011;56184;51.986;5.760;2022-09-24T02:36:44;29.67;;;19.75;;
69081;SDS011;56184;51.986;5.760;2022-09-24T02:39:11;29.52;;;19.58;;
69081;SDS011;56184;51.986;5.760;2022-09-24T02:41:37;26.52;;;18.55;;
69081;SDS011;56184;51.986;5.760;2022-09-24T02:44:18;26.55;;;19.40;;
69081;SDS011;56184;51.986;5.760;2022-09-24T02:46:45;26.20;;;18.95;;
69081;SDS011;56184;51.986;5.760;2022-09-24T02:49:11;22.27;;;16.83;;
69081;SDS011;56184;51.986;5.760;2022-09-24T02:51:39;25.15;;;19.13;;
69081;SDS011;56184;51.986;5.760;2022-09-24T02:54:06;29.27;;;18.73;;
69081;SDS011;56184;51.986;5.760;2022-09-24T02:56:32;21.73;;;16.30;;
69081;SDS011;56184;51.986;5.760;2022-09-24T02:59:06;24.70;;;17.58;;
69081;SDS011;56184;51.986;5.760;2022-09-24T03:01:33;28.13;;;17.10;;
69081;SDS011;56184;51.986;5.760;2022-09-24T03:04:00;25.83;;;16.48;;
69081;SDS011;56184;51.986;5.760;2022-09-24T03:06:26;23.77;;;17.35;;
69081;SDS011;56184;51.986;5.760;2022-09-24T03:08:52;23.83;;;17.27;;
69081;SDS011;56184;51.986;5.760;2022-09-24T03:11:18;23.08;;;15.98;;
69081;SDS011;56184;51.986;5.760;2022-09-24T03:13:46;24.38;;;16.27;;
69081;SDS011;56184;51.986;5.760;2022-09-24T03:16:12;21.77;;;15.43;;
69081;SDS011;56184;51.986;5.760;2022-09-24T03:18:38;21.23;;;15.77;;
69081;SDS011;56184;51.986;5.760;2022-09-24T03:21:05;22.75;;;16.42;;
69081;SDS011;56184;51.986;5.760;2022-09-24T03:23:34;24.27;;;15.75;;
69081;SDS011;56184;51.986;5.760;2022-09-24T03:25:59;22.55;;;16.05;;
69081;SDS011;56184;51.986;5.760;2022-09-24T03:28:26;23.58;;;14.73;;
69081;SDS011;56184;51.986;5.760;2022-09-24T03:30:52;21.50;;;16.45;;
69081;SDS011;56184;51.986;5.760;2022-09-24T03:33:33;21.48;;;15.90;;
69081;SDS011;56184;51.986;5.760;2022-09-24T03:36:13;18.50;;;14.27;;
69081;SDS011;56184;51.986;5.760;2022-09-24T03:38:41;22.90;;;14.90;;
69081;SDS011;56184;51.986;5.760;2022-09-24T03:41:08;20.40;;;14.70;;
69081;SDS011;56184;51.986;5.760;2022-09-24T03:43:35;19.63;;;14.40;;
69081;SDS011;56184;51.986;5.760;2022-09-24T03:46:01;20.08;;;13.52;;
69081;SDS011;56184;51.986;5.760;2022-09-24T03:48:28;18.05;;;13.60;;
69081;SDS011;56184;51.986;5.760;2022-09-24T03:50:54;19.55;;;12.38;;
69081;SDS011;56184;51.986;5.760;2022-09-24T03:53:20;16.33;;;12.35;;
69081;SDS011;56184;51.986;5.760;2022-09-24T03:55:47;19.35;;;12.90;;
69081;SDS011;56184;51.986;5.760;2022-09-24T04:00:47;18.80;;;13.15;;
69081;SDS011;56184;51.986;5.760;2022-09-24T04:03:15;18.00;;;12.98;;
69081;SDS011;56184;51.986;5.760;2022-09-24T04:05:43;20.70;;;12.43;;
69081;SDS011;56184;51.986;5.760;2022-09-24T04:08:09;22.88;;;13.00;;
69081;SDS011;56184;51.986;5.760;2022-09-24T04:10:34;20.77;;;13.27;;
69081;SDS011;56184;51.986;5.760;2022-09-24T04:13:03;16.27;;;11.40;;
69081;SDS011;56184;51.986;5.760;2022-09-24T04:15:29;16.50;;;12.57;;
69081;SDS011;56184;51.986;5.760;2022-09-24T04:17:57;17.13;;;12.52;;
69081;SDS011;56184;51.986;5.760;2022-09-24T04:20:24;15.75;;;12.23;;
69081;SDS011;56184;51.986;5.760;2022-09-24T04:22:52;14.98;;;12.07;;
69081;SDS011;56184;51.986;5.760;2022-09-24T04:25:19;14.50;;;10.55;;
69081;SDS011;56184;51.986;5.760;2022-09-24T04:27:50;16.80;;;11.80;;
69081;SDS011;56184;51.986;5.760;2022-09-24T04:30:17;20.13;;;12.20;;
69081;SDS011;56184;51.986;5.760;2022-09-24T04:32:43;15.38;;;11.98;;
69081;SDS011;56184;51.986;5.760;2022-09-24T04:35:09;17.10;;;12.18;;
69081;SDS011;56184;51.986;5.760;2022-09-24T04:37:35;20.23;;;12.13;;
69081;SDS011;56184;51.986;5.760;2022-09-24T04:40:02;16.80;;;12.52;;
69081;SDS011;56184;51.986;5.760;2022-09-24T04:42:29;17.85;;;12.25;;
69081;SDS011;56184;51.986;5.760;2022-09-24T04:44:54;15.63;;;12.35;;
69081;SDS011;56184;51.986;5.760;2022-09-24T04:47:20;20.65;;;12.43;;
69081;SDS011;56184;51.986;5.760;2022-09-24T04:49:48;15.82;;;11.95;;
69081;SDS011;56184;51.986;5.760;2022-09-24T04:52:14;15.57;;;10.68;;
69081;SDS011;56184;51.986;5.760;2022-09-24T04:54:43;14.65;;;11.40;;
69081;SDS011;56184;51.986;5.760;2022-09-24T04:57:10;17.23;;;13.13;;
69081;SDS011;56184;51.986;5.760;2022-09-24T04:59:37;17.73;;;12.10;;
69081;SDS011;56184;51.986;5.760;2022-09-24T05:02:02;19.10;;;13.13;;
69081;SDS011;56184;51.986;5.760;2022-09-24T05:04:28;19.45;;;13.88;;
69081;SDS011;56184;51.986;5.760;2022-09-24T05:06:54;16.63;;;12.10;;
69081;SDS011;56184;51.986;5.760;2022-09-24T05:09:19;18.73;;;12.73;;
69081;SDS011;56184;51.986;5.760;2022-09-24T05:11:45;17.02;;;11.90;;
69081;SDS011;56184;51.986;5.760;2022-09-24T05:14:10;20.20;;;12.25;;
69081;SDS011;56184;51.986;5.760;2022-09-24T05:16:36;18.35;;;12.93;;
69081;SDS011;56184;51.986;5.760;2022-09-24T05:19:02;20.23;;;14.23;;
69081;SDS011;56184;51.986;5.760;2022-09-24T05:21:29;18.02;;;12.27;;
69081;SDS011;56184;51.986;5.760;2022-09-24T05:23:55;19.25;;;13.00;;
69081;SDS011;56184;51.986;5.760;2022-09-24T05:26:20;17.83;;;12.88;;
69081;SDS011;56184;51.986;5.760;2022-09-24T05:29:04;17.70;;;12.60;;
69081;SDS011;56184;51.986;5.760;2022-09-24T05:31:30;22.63;;;13.57;;
69081;SDS011;56184;51.986;5.760;2022-09-24T05:33:56;22.80;;;13.27;;
69081;SDS011;56184;51.986;5.760;2022-09-24T05:36:21;17.00;;;12.43;;
69081;SDS011;56184;51.986;5.760;2022-09-24T05:38:50;23.45;;;13.80;;
69081;SDS011;56184;51.986;5.760;2022-09-24T05:41:19;20.58;;;13.70;;
69081;SDS011;56184;51.986;5.760;2022-09-24T05:43:45;22.73;;;14.70;;
69081;SDS011;56184;51.986;5.760;2022-09-24T05:46:11;19.27;;;13.90;;
69081;SDS011;56184;51.986;5.760;2022-09-24T05:48:36;20.50;;;14.48;;
69081;SDS011;56184;51.986;5.760;2022-09-24T05:51:02;16.80;;;13.40;;
69081;SDS011;56184;51.986;5.760;2022-09-24T05:53:29;18.90;;;13.80;;
69081;SDS011;56184;51.986;5.760;2022-09-24T05:55:55;23.80;;;13.10;;
69081;SDS011;56184;51.986;5.760;2022-09-24T05:58:21;18.75;;;13.10;;
69081;SDS011;56184;51.986;5.760;2022-09-24T06:00:47;20.88;;;14.10;;
69081;SDS011;56184;51.986;5.760;2022-09-24T06:03:14;19.23;;;14.43;;
69081;SDS011;56184;51.986;5.760;2022-09-24T06:05:44;23.40;;;14.77;;
69081;SDS011;56184;51.986;5.760;2022-09-24T06:08:11;21.42;;;15.48;;
69081;SDS011;56184;51.986;5.760;2022-09-24T06:10:39;19.33;;;15.10;;
69081;SDS011;56184;51.986;5.760;2022-09-24T06:13:06;20.50;;;13.82;;
69081;SDS011;56184;51.986;5.760;2022-09-24T06:15:32;20.77;;;14.90;;
69081;SDS011;56184;51.986;5.760;2022-09-24T06:17:59;22.88;;;13.70;;
69081;SDS011;56184;51.986;5.760;2022-09-24T06:20:24;18.65;;;13.90;;
69081;SDS011;56184;51.986;5.760;2022-09-24T06:22:53;22.65;;;14.85;;
69081;SDS011;56184;51.986;5.760;2022-09-24T06:25:19;15.68;;;11.32;;
69081;SDS011;56184;51.986;5.760;2022-09-24T06:27:45;17.95;;;12.60;;
69081;SDS011;56184;51.986;5.760;2022-09-24T06:30:24;23.83;;;14.20;;
69081;SDS011;56184;51.986;5.760;2022-09-24T06:32:51;21.42;;;12.23;;
69081;SDS011;56184;51.986;5.760;2022-09-24T06:35:18;17.85;;;13.25;;
69081;SDS011;56184;51.986;5.760;2022-09-24T06:37:44;17.63;;;12.18;;
69081;SDS011;56184;51.986;5.760;2022-09-24T06:40:12;17.17;;;12.05;;
69081;SDS011;56184;51.986;5.760;2022-09-24T06:42:37;17.45;;;12.60;;
69081;SDS011;56184;51.986;5.760;2022-09-24T06:45:03;18.90;;;12.68;;
69081;SDS011;56184;51.986;5.760;2022-09-24T06:47:29;15.88;;;12.00;;
69081;SDS011;56184;51.986;5.760;2022-09-24T06:49:54;16.70;;;11.23;;
69081;SDS011;56184;51.986;5.760;2022-09-24T06:52:20;13.70;;;10.18;;
69081;SDS011;56184;51.986;5.760;2022-09-24T06:54:47;14.15;;;11.32;;
69081;SDS011;56184;51.986;5.760;2022-09-24T06:57:13;15.40;;;12.13;;
69081;SDS011;56184;51.986;5.760;2022-09-24T06:59:39;15.35;;;11.48;;
69081;SDS011;56184;51.986;5.760;2022-09-24T07:02:06;17.15;;;12.02;;
69081;SDS011;56184;51.986;5.760;2022-09-24T07:04:34;19.02;;;12.55;;
69081;SDS011;56184;51.986;5.760;2022-09-24T07:07:00;15.88;;;11.07;;
69081;SDS011;56184;51.986;5.760;2022-09-24T07:09:46;17.25;;;10.77;;
69081;SDS011;56184;51.986;5.760;2022-09-24T07:12:12;15.82;;;10.95;;
69081;SDS011;56184;51.986;5.760;2022-09-24T07:14:38;16.55;;;10.45;;
69081;SDS011;56184;51.986;5.760;2022-09-24T07:17:03;20.13;;;12.27;;
69081;SDS011;56184;51.986;5.760;2022-09-24T07:19:29;16.90;;;12.85;;
69081;SDS011;56184;51.986;5.760;2022-09-24T07:21:54;15.90;;;11.85;;
69081;SDS011;56184;51.986;5.760;2022-09-24T07:24:20;14.98;;;10.90;;
69081;SDS011;56184;51.986;5.760;2022-09-24T07:26:46;17.60;;;12.90;;
69081;SDS011;56184;51.986;5.760;2022-09-24T07:29:12;14.27;;;10.52;;
69081;SDS011;56184;51.986;5.760;2022-09-24T07:31:37;17.48;;;12.10;;
69081;SDS011;56184;51.986;5.760;2022-09-24T07:34:05;15.10;;;11.52;;
69081;SDS011;56184;51.986;5.760;2022-09-24T07:36:32;18.33;;;12.77;;
69081;SDS011;56184;51.986;5.760;2022-09-24T07:38:57;19.10;;;13.27;;
69081;SDS011;56184;51.986;5.760;2022-09-24T07:41:23;21.40;;;13.60;;
69081;SDS011;56184;51.986;5.760;2022-09-24T07:43:49;18.45;;;13.23;;
69081;SDS011;56184;51.986;5.760;2022-09-24T07:46:15;18.08;;;13.32;;
69081;SDS011;56184;51.986;5.760;2022-09-24T07:48:40;20.17;;;12.40;;
69081;SDS011;56184;51.986;5.760;2022-09-24T07:51:09;17.95;;;13.27;;
69081;SDS011;56184;51.986;5.760;2022-09-24T07:53:35;19.15;;;13.25;;
69081;SDS011;56184;51.986;5.760;2022-09-24T07:56:02;18.75;;;12.82;;
69081;SDS011;56184;51.986;5.760;2022-09-24T07:58:28;21.88;;;13.63;;
69081;SDS011;56184;51.986;5.760;2022-09-24T08:00:58;17.83;;;12.32;;
69081;SDS011;56184;51.986;5.760;2022-09-24T08:03:25;18.65;;;11.82;;
69081;SDS011;56184;51.986;5.760;2022-09-24T08:05:51;19.63;;;13.25;;
69081;SDS011;56184;51.986;5.760;2022-09-24T08:08:21;17.80;;;12.65;;
69081;SDS011;56184;51.986;5.760;2022-09-24T08:10:47;15.35;;;12.23;;
69081;SDS011;56184;51.986;5.760;2022-09-24T08:13:12;15.80;;;13.07;;
69081;SDS011;56184;51.986;5.760;2022-09-24T08:15:38;15.02;;;11.77;;
69081;SDS011;56184;51.986;5.760;2022-09-24T08:18:04;19.88;;;12.23;;
69081;SDS011;56184;51.986;5.760;2022-09-24T08:20:33;17.88;;;13.15;;
69081;SDS011;56184;51.986;5.760;2022-09-24T08:23:04;17.88;;;13.90;;
69081;SDS011;56184;51.986;5.760;2022-09-24T08:25:31;21.08;;;13.00;;
69081;SDS011;56184;51.986;5.760;2022-09-24T08:28:04;22.02;;;14.10;;
69081;SDS011;56184;51.986;5.760;2022-09-24T08:32:57;20.67;;;12.80;;
69081;SDS011;56184;51.986;5.760;2022-09-24T08:35:23;18.33;;;13.18;;
69081;SDS011;56184;51.986;5.760;2022-09-24T08:37:49;19.20;;;14.15;;
69081;SDS011;56184;51.986;5.760;2022-09-24T08:40:19;23.77;;;14.45;;
69081;SDS011;56184;51.986;5.760;2022-09-24T08:42:57;18.95;;;13.10;;
69081;SDS011;56184;51.986;5.760;2022-09-24T08:45:33;19.83;;;13.25;;
69081;SDS011;56184;51.986;5.760;2022-09-24T08:48:24;15.77;;;13.07;;
69081;SDS011;56184;51.986;5.760;2022-09-24T08:50:57;17.13;;;12.02;;
69081;SDS011;56184;51.986;5.760;2022-09-24T08:53:38;16.75;;;13.52;;
69081;SDS011;56184;51.986;5.760;2022-09-24T08:56:12;15.48;;;11.93;;
69081;SDS011;56184;51.986;5.760;2022-09-24T09:01:19;16.38;;;12.50;;
69081;SDS011;56184;51.986;5.760;2022-09-24T09:04:06;18.65;;;13.00;;
69081;SDS011;56184;51.986;5.760;2022-09-24T09:12:36;16.70;;;13.45;;
69081;SDS011;56184;51.986;5.760;2022-09-24T09:15:05;16.48;;;12.18;;
69081;SDS011;56184;51.986;5.760;2022-09-24T09:22:55;17.17;;;11.90;;
69081;SDS011;56184;51.986;5.760;2022-09-24T09:25:25;19.90;;;11.90;;
69081;SDS011;56184;51.986;5.760;2022-09-24T09:27:58;14.48;;;11.77;;
69081;SDS011;56184;51.986;5.760;2022-09-24T09:30:37;17.13;;;11.70;;
69081;SDS011;56184;51.986;5.760;2022-09-24T09:33:50;12.23;;;9.32;;
69081;SDS011;56184;51.986;5.760;2022-09-24T09:45:17;15.60;;;11.63;;
69081;SDS011;56184;51.986;5.760;2022-09-24T09:47:58;14.90;;;10.32;;
69081;SDS011;56184;51.986;5.760;2022-09-24T09:50:38;17.30;;;11.82;;
69081;SDS011;56184;51.986;5.760;2022-09-24T09:58:24;15.85;;;11.30;;
69081;SDS011;56184;51.986;5.760;2022-09-24T10:01:00;15.10;;;11.57;;
69081;SDS011;56184;51.986;5.760;2022-09-24T10:03:44;15.57;;;11.27;;
69081;SDS011;56184;51.986;5.760;2022-09-24T10:06:23;15.50;;;10.15;;
69081;SDS011;56184;51.986;5.760;2022-09-24T10:08:50;14.50;;;10.45;;
69081;SDS011;56184;51.986;5.760;2022-09-24T10:11:16;17.75;;;11.77;;
69081;SDS011;56184;51.986;5.760;2022-09-24T10:13:43;16.58;;;11.05;;
69081;SDS011;56184;51.986;5.760;2022-09-24T10:16:09;16.08;;;10.80;;
69081;SDS011;56184;51.986;5.760;2022-09-24T10:18:47;15.93;;;11.23;;
69081;SDS011;56184;51.986;5.760;2022-09-24T10:21:31;15.52;;;11.00;;
69081;SDS011;56184;51.986;5.760;2022-09-24T10:24:00;18.35;;;11.13;;
69081;SDS011;56184;51.986;5.760;2022-09-24T10:26:35;13.23;;;10.45;;
69081;SDS011;56184;51.986;5.760;2022-09-24T10:29:03;19.73;;;11.00;;
69081;SDS011;56184;51.986;5.760;2022-09-24T10:31:48;14.40;;;10.88;;
69081;SDS011;56184;51.986;5.760;2022-09-24T10:34:18;16.75;;;10.43;;
69081;SDS011;56184;51.986;5.760;2022-09-24T10:36:53;15.80;;;11.60;;
69081;SDS011;56184;51.986;5.760;2022-09-24T10:39:27;14.63;;;11.13;;
69081;SDS011;56184;51.986;5.760;2022-09-24T10:41:54;14.20;;;11.07;;
69081;SDS011;56184;51.986;5.760;2022-09-24T10:44:21;15.35;;;11.70;;
69081;SDS011;56184;51.986;5.760;2022-09-24T10:52:45;14.30;;;11.20;;
69081;SDS011;56184;51.986;5.760;2022-09-24T10:57:52;16.20;;;13.35;;
69081;SDS011;56184;51.986;5.760;2022-09-24T11:01:18;17.00;;;12.77;;
69081;SDS011;56184;51.986;5.760;2022-09-24T11:06:13;17.20;;;12.15;;
69081;SDS011;56184;51.986;5.760;2022-09-24T11:14:56;17.15;;;12.57;;
69081;SDS011;56184;51.986;5.760;2022-09-24T11:17:32;14.70;;;10.90;;
69081;SDS011;56184;51.986;5.760;2022-09-24T11:20:37;13.05;;;10.90;;
69081;SDS011;56184;51.986;5.760;2022-09-24T11:25:57;18.13;;;11.68;;
69081;SDS011;56184;51.986;5.760;2022-09-24T11:31:39;18.10;;;10.93;;
69081;SDS011;56184;51.986;5.760;2022-09-24T11:45:27;13.27;;;9.32;;
69081;SDS011;56184;51.986;5.760;2022-09-24T11:48:27;9.38;;;7.35;;
69081;SDS011;56184;51.986;5.760;2022-09-24T11:51:20;12.68;;;8.15;;
69081;SDS011;56184;51.986;5.760;2022-09-24T11:56:28;10.85;;;8.07;;
69081;SDS011;56184;51.986;5.760;2022-09-24T12:01:39;11.63;;;8.70;;
69081;SDS011;56184;51.986;5.760;2022-09-24T12:04:41;9.57;;;7.90;;
69081;SDS011;56184;51.986;5.760;2022-09-24T12:07:19;10.27;;;7.78;;
69081;SDS011;56184;51.986;5.760;2022-09-24T12:10:18;10.52;;;8.38;;
69081;SDS011;56184;51.986;5.760;2022-09-24T12:12:49;10.65;;;7.88;;
69081;SDS011;56184;51.986;5.760;2022-09-24T12:15:21;11.45;;;8.07;;
69081;SDS011;56184;51.986;5.760;2022-09-24T12:17:50;11.52;;;8.13;;
69081;SDS011;56184;51.986;5.760;2022-09-24T12:20:48;17.25;;;9.20;;
69081;SDS011;56184;51.986;5.760;2022-09-24T12:23:24;13.23;;;9.80;;
69081;SDS011;56184;51.986;5.760;2022-09-24T12:25:53;13.40;;;10.18;;
69081;SDS011;56184;51.986;5.760;2022-09-24T12:28:22;9.93;;;8.65;;
69081;SDS011;56184;51.986;5.760;2022-09-24T12:31:16;12.77;;;8.98;;
69081;SDS011;56184;51.986;5.760;2022-09-24T12:34:20;9.75;;;7.07;;
69081;SDS011;56184;51.986;5.760;2022-09-24T12:37:12;11.13;;;9.00;;
69081;SDS011;56184;51.986;5.760;2022-09-24T12:39:46;10.57;;;7.63;;
69081;SDS011;56184;51.986;5.760;2022-09-24T12:42:35;11.43;;;7.87;;
69081;SDS011;56184;51.986;5.760;2022-09-24T12:45:20;10.50;;;7.85;;
69081;SDS011;56184;51.986;5.760;2022-09-24T12:47:49;9.73;;;7.65;;
69081;SDS011;56184;51.986;5.760;2022-09-24T12:50:22;12.85;;;8.18;;
69081;SDS011;56184;51.986;5.760;2022-09-24T12:52:51;15.47;;;8.87;;
69081;SDS011;56184;51.986;5.760;2022-09-24T12:55:20;10.60;;;8.05;;
69081;SDS011;56184;51.986;5.760;2022-09-24T12:57:53;9.90;;;8.20;;
69081;SDS011;56184;51.986;5.760;2022-09-24T13:03:02;13.40;;;9.73;;
69081;SDS011;56184;51.986;5.760;2022-09-24T13:05:44;12.48;;;8.10;;
69081;SDS011;56184;51.986;5.760;2022-09-24T13:11:00;11.88;;;9.05;;
69081;SDS011;56184;51.986;5.760;2022-09-24T13:13:36;12.55;;;9.27;;
69081;SDS011;56184;51.986;5.760;2022-09-24T13:16:17;11.32;;;7.93;;
69081;SDS011;56184;51.986;5.760;2022-09-24T13:18:51;13.18;;;10.13;;
69081;SDS011;56184;51.986;5.760;2022-09-24T13:21:24;13.88;;;10.57;;
69081;SDS011;56184;51.986;5.760;2022-09-24T13:23:53;12.95;;;9.45;;
69081;SDS011;56184;51.986;5.760;2022-09-24T13:28:50;16.00;;;9.88;;
69081;SDS011;56184;51.986;5.760;2022-09-24T13:36:39;12.52;;;9.98;;
69081;SDS011;56184;51.986;5.760;2022-09-24T13:39:10;14.38;;;10.43;;
69081;SDS011;56184;51.986;5.760;2022-09-24T13:41:49;15.60;;;10.60;;
69081;SDS011;56184;51.986;5.760;2022-09-24T13:44:33;15.15;;;9.65;;
69081;SDS011;56184;51.986;5.760;2022-09-24T13:47:11;15.30;;;9.88;;
69081;SDS011;56184;51.986;5.760;2022-09-24T13:50:24;14.50;;;9.65;;
69081;SDS011;56184;51.986;5.760;2022-09-24T13:52:54;11.95;;;9.40;;
69081;SDS011;56184;51.986;5.760;2022-09-24T13:55:28;6.32;;;5.03;;
69081;SDS011;56184;51.986;5.760;2022-09-24T13:58:26;9.35;;;6.40;;
69081;SDS011;56184;51.986;5.760;2022-09-24T14:00:52;9.70;;;7.32;;
69081;SDS011;56184;51.986;5.760;2022-09-24T14:03:25;11.82;;;7.93;;
69081;SDS011;56184;51.986;5.760;2022-09-24T14:05:54;9.73;;;7.68;;
69081;SDS011;56184;51.986;5.760;2022-09-24T14:08:21;10.20;;;7.90;;
69081;SDS011;56184;51.986;5.760;2022-09-24T14:10:48;12.38;;;8.35;;
69081;SDS011;56184;51.986;5.760;2022-09-24T14:18:21;10.20;;;8.07;;
69081;SDS011;56184;51.986;5.760;2022-09-24T14:20:55;10.23;;;7.80;;
69081;SDS011;56184;51.986;5.760;2022-09-24T14:23:31;7.80;;;5.07;;
69081;SDS011;56184;51.986;5.760;2022-09-24T14:26:01;6.90;;;5.43;;
69081;SDS011;56184;51.986;5.760;2022-09-24T14:28:34;8.43;;;5.50;;
69081;SDS011;56184;51.986;5.760;2022-09-24T14:31:00;6.00;;;4.75;;
69081;SDS011;56184;51.986;5.760;2022-09-24T14:33:28;4.22;;;3.22;;
69081;SDS011;56184;51.986;5.760;2022-09-24T14:35:56;4.22;;;2.63;;
69081;SDS011;56184;51.986;5.760;2022-09-24T14:38:27;2.92;;;1.85;;
69081;SDS011;56184;51.986;5.760;2022-09-24T14:41:33;1.90;;;1.40;;
69081;SDS011;56184;51.986;5.760;2022-09-24T14:44:06;4.53;;;2.25;;
69081;SDS011;56184;51.986;5.760;2022-09-24T14:46:45;3.25;;;1.63;;
69081;SDS011;56184;51.986;5.760;2022-09-24T14:54:26;5.97;;;1.65;;
69081;SDS011;56184;51.986;5.760;2022-09-24T14:56:55;6.35;;;1.50;;
69081;SDS011;56184;51.986;5.760;2022-09-24T14:59:28;8.70;;;3.00;;
69081;SDS011;56184;51.986;5.760;2022-09-24T15:02:02;5.13;;;1.70;;
69081;SDS011;56184;51.986;5.760;2022-09-24T15:04:34;3.72;;;1.30;;
69081;SDS011;56184;51.986;5.760;2022-09-24T15:07:00;4.82;;;0.95;;
69081;SDS011;56184;51.986;5.760;2022-09-24T15:09:29;2.17;;;0.88;;
69081;SDS011;56184;51.986;5.760;2022-09-24T15:12:08;2.72;;;0.98;;
69081;SDS011;56184;51.986;5.760;2022-09-24T15:14:42;5.18;;;1.30;;
69081;SDS011;56184;51.986;5.760;2022-09-24T15:17:27;2.47;;;0.93;;
69081;SDS011;56184;51.986;5.760;2022-09-24T15:19:54;2.95;;;0.93;;
69081;SDS011;56184;51.986;5.760;2022-09-24T15:22:22;5.40;;;1.13;;
69081;SDS011;56184;51.986;5.760;2022-09-24T15:24:54;5.10;;;1.20;;
69081;SDS011;56184;51.986;5.760;2022-09-24T15:27:23;3.38;;;1.10;;
69081;SDS011;56184;51.986;5.760;2022-09-24T15:29:57;2.03;;;0.98;;
69081;SDS011;56184;51.986;5.760;2022-09-24T15:32:26;3.67;;;1.02;;
69081;SDS011;56184;51.986;5.760;2022-09-24T15:34:55;4.97;;;1.17;;
69081;SDS011;56184;51.986;5.760;2022-09-24T15:37:24;2.45;;;0.88;;
69081;SDS011;56184;51.986;5.760;2022-09-24T15:39:53;3.22;;;1.00;;
69081;SDS011;56184;51.986;5.760;2022-09-24T15:42:22;4.13;;;1.10;;
69081;SDS011;56184;51.986;5.760;2022-09-24T15:44:49;3.55;;;1.10;;
69081;SDS011;56184;51.986;5.760;2022-09-24T15:47:16;2.55;;;1.10;;
69081;SDS011;56184;51.986;5.760;2022-09-24T15:49:42;2.85;;;1.20;;
69081;SDS011;56184;51.986;5.760;2022-09-24T15:52:24;4.03;;;1.10;;
69081;SDS011;56184;51.986;5.760;2022-09-24T15:54:53;4.95;;;1.15;;
69081;SDS011;56184;51.986;5.760;2022-09-24T15:57:20;4.57;;;0.90;;
69081;SDS011;56184;51.986;5.760;2022-09-24T15:59:50;5.03;;;0.82;;
69081;SDS011;56184;51.986;5.760;2022-09-24T16:02:17;4.15;;;1.10;;
69081;SDS011;56184;51.986;5.760;2022-09-24T16:04:47;8.80;;;0.93;;
69081;SDS011;56184;51.986;5.760;2022-09-24T16:07:14;4.80;;;1.10;;
69081;SDS011;56184;51.986;5.760;2022-09-24T16:09:39;7.07;;;1.40;;
69081;SDS011;56184;51.986;5.760;2022-09-24T16:12:05;7.03;;;1.15;;
69081;SDS011;56184;51.986;5.760;2022-09-24T16:14:31;3.75;;;1.15;;
69081;SDS011;56184;51.986;5.760;2022-09-24T16:16:56;6.13;;;1.10;;
69081;SDS011;56184;51.986;5.760;2022-09-24T16:19:22;4.97;;;1.20;;
69081;SDS011;56184;51.986;5.760;2022-09-24T16:21:48;8.52;;;1.27;;
69081;SDS011;56184;51.986;5.760;2022-09-24T16:24:16;6.40;;;0.90;;
69081;SDS011;56184;51.986;5.760;2022-09-24T16:26:41;5.32;;;1.10;;
69081;SDS011;56184;51.986;5.760;2022-09-24T16:29:08;6.90;;;0.95;;
69081;SDS011;56184;51.986;5.760;2022-09-24T16:31:35;8.75;;;1.30;;
69081;SDS011;56184;51.986;5.760;2022-09-24T16:34:01;5.07;;;1.10;;
69081;SDS011;56184;51.986;5.760;2022-09-24T16:36:27;6.20;;;1.15;;
69081;SDS011;56184;51.986;5.760;2022-09-24T16:38:53;6.68;;;1.20;;
69081;SDS011;56184;51.986;5.760;2022-09-24T16:41:18;3.75;;;1.00;;
69081;SDS011;56184;51.986;5.760;2022-09-24T16:43:44;11.00;;;1.38;;
69081;SDS011;56184;51.986;5.760;2022-09-24T16:46:10;5.82;;;1.17;;
69081;SDS011;56184;51.986;5.760;2022-09-24T16:48:37;4.82;;;0.93;;